sensor_id;sensor_type;location;lat;lon;timestamp;temperature;humidity
23323;DHT22;11833;52.554;13.554;2023-02-22T01:00:16;7.50;99.90
23323;DHT22;11833;52.554;13.554;2023-02-22T01:02:44;7.50;99.90
23323;DHT22;11833;52.554;13.554;2023-02-22T01:05:12;7.40;99.90
23323;DHT22;11833;52.554;13.554;2023-02-22T01:07:39;7.40;99.90
23323;DHT22;11833;52.554;13.554;2023-02-22T01:10:07;7.30;99.90
23323;DHT22;11833;52.554;13.554;2023-02-22T01:12:35;7.30;99.90
23323;DHT22;11833;52.554;13.554;2023-02-22T01:15:03;7.30;99.90
23323;DHT22;11833;52.554;13.554;2023-02-22T01:17:30;7.30;99.90
23323;DHT22;11833;52.554;13.554;2023-02-22T01:19:56;7.30;99.90
23323;DHT22;11833;52.554;13.554;2023-02-22T01:22:22;7.30;99.90
23323;DHT22;11833;52.554;13.554;2023-02-22T01:24:49;7.20;99.90
23323;DHT22;11833;52.554;13.554;2023-02-22T01:27:16;7.20;99.90
23323;DHT22;11833;52.554;13.554;2023-02-22T01:29:43;7.20;99.90
23323;DHT22;11833;52.554;13.554;2023-02-22T01:32:09;7.20;99.90
23323;DHT22;11833;52.554;13.554;2023-02-22T01:34:37;7.10;99.90
23323;DHT22;11833;52.554;13.554;2023-02-22T01:37:03;7.10;99.90
23323;DHT22;11833;52.554;13.554;2023-02-22T01:39:31;7.10;99.90
23323;DHT22;11833;52.554;13.554;2023-02-22T01:41:57;7.20;99.90
23323;DHT22;11833;52.554;13.554;2023-02-22T01:44:30;7.20;99.90
23323;DHT22;11833;52.554;13.554;2023-02-22T01:47:01;7.20;99.90
23323;DHT22;11833;52.554;13.554;2023-02-22T01:49:44;7.20;99.90
23323;DHT22;11833;52.554;13.554;2023-02-22T01:52:14;7.30;99.90
23323;DHT22;11833;52.554;13.554;2023-02-22T01:54:47;7.30;99.90
23323;DHT22;11833;52.554;13.554;2023-02-22T01:57:25;7.30;99.90
23323;DHT22;11833;52.554;13.554;2023-02-22T01:59:59;7.30;99.90
23323;DHT22;11833;52.554;13.554;2023-02-22T02:02:37;7.40;99.90
23323;DHT22;11833;52.554;13.554;2023-02-22T02:05:07;7.40;99.90
23323;DHT22;11833;52.554;13.554;2023-02-22T02:07:35;7.40;99.90
23323;DHT22;11833;52.554;13.554;2023-02-22T02:10:09;7.40;99.90
23323;DHT22;11833;52.554;13.554;2023-02-22T02:12:43;7.40;99.90
23323;DHT22;11833;52.554;13.554;2023-02-22T02:17:49;7.30;99.90
23323;DHT22;11833;52.554;13.554;2023-02-22T02:20:18;7.40;99.90
23323;DHT22;11833;52.554;13.554;2023-02-22T02:22:52;7.40;99.90
23323;DHT22;11833;52.554;13.554;2023-02-22T02:38:09;7.50;99.90
23323;DHT22;11833;52.554;13.554;2023-02-22T02:43:52;7.40;99.90
23323;DHT22;11833;52.554;13.554;2023-02-22T02:46:31;7.40;99.90
23323;DHT22;11833;52.554;13.554;2023-02-22T02:49:07;7.40;99.90
23323;DHT22;11833;52.554;13.554;2023-02-22T02:51:40;7.40;99.90
23323;DHT22;11833;52.554;13.554;2023-02-22T02:54:09;7.40;99.90
23323;DHT22;11833;52.554;13.554;2023-02-22T02:56:36;7.30;99.90
23323;DHT22;11833;52.554;13.554;2023-02-22T02:59:02;7.40;99.90
23323;DHT22;11833;52.554;13.554;2023-02-22T03:01:44;7.40;99.90
23323;DHT22;11833;52.554;13.554;2023-02-22T03:15:59;7.40;99.90
23323;DHT22;11833;52.554;13.554;2023-02-22T03:21:42;7.40;99.90
23323;DHT22;11833;52.554;13.554;2023-02-22T03:27:28;7.20;99.90
23323;DHT22;11833;52.554;13.554;2023-02-22T03:30:03;7.20;99.90
23323;DHT22;11833;52.554;13.554;2023-02-22T03:32:38;7.20;99.90
23323;DHT22;11833;52.554;13.554;2023-02-22T03:35:13;7.10;99.90
23323;DHT22;11833;52.554;13.554;2023-02-22T03:37:45;7.10;99.90
23323;DHT22;11833;52.554;13.554;2023-02-22T03:40:21;7.10;99.90
23323;DHT22;11833;52.554;13.554;2023-02-22T03:42:55;7.10;99.90
23323;DHT22;11833;52.554;13.554;2023-02-22T03:45:26;7.10;99.90
23323;DHT22;11833;52.554;13.554;2023-02-22T03:48:02;7.10;99.90
23323;DHT22;11833;52.554;13.554;2023-02-22T03:50:35;7.10;99.90
23323;DHT22;11833;52.554;13.554;2023-02-22T03:53:01;7.10;99.90
23323;DHT22;11833;52.554;13.554;2023-02-22T03:55:27;7.20;99.90
23323;DHT22;11833;52.554;13.554;2023-02-22T03:57:57;7.20;99.90
23323;DHT22;11833;52.554;13.554;2023-02-22T04:00:26;7.20;99.90
23323;DHT22;11833;52.554;13.554;2023-02-22T04:02:54;7.20;99.90
23323;DHT22;11833;52.554;13.554;2023-02-22T04:05:20;7.00;99.90
23323;DHT22;11833;52.554;13.554;2023-02-22T04:07:46;7.00;99.90
23323;DHT22;11833;52.554;13.554;2023-02-22T04:10:12;7.00;99.90
23323;DHT22;11833;52.554;13.554;2023-02-22T04:12:39;7.10;99.90
23323;DHT22;11833;52.554;13.554;2023-02-22T04:15:07;7.10;99.90
23323;DHT22;11833;52.554;13.554;2023-02-22T04:17:33;7.10;99.90
23323;DHT22;11833;52.554;13.554;2023-02-22T04:19:59;7.00;99.90
23323;DHT22;11833;52.554;13.554;2023-02-22T04:22:25;7.10;99.90
23323;DHT22;11833;52.554;13.554;2023-02-22T04:24:51;7.00;99.90
23323;DHT22;11833;52.554;13.554;2023-02-22T04:27:18;7.00;99.90
23323;DHT22;11833;52.554;13.554;2023-02-22T04:29:43;7.00;99.90
23323;DHT22;11833;52.554;13.554;2023-02-22T04:32:09;7.00;99.90
23323;DHT22;11833;52.554;13.554;2023-02-22T04:34:35;6.90;99.90
23323;DHT22;11833;52.554;13.554;2023-02-22T04:37:00;6.90;99.90
23323;DHT22;11833;52.554;13.554;2023-02-22T04:39:26;6.90;99.90
23323;DHT22;11833;52.554;13.554;2023-02-22T04:41:52;6.70;99.90
23323;DHT22;11833;52.554;13.554;2023-02-22T04:44:18;6.60;99.90
23323;DHT22;11833;52.554;13.554;2023-02-22T04:46:43;6.50;99.90
23323;DHT22;11833;52.554;13.554;2023-02-22T04:49:11;6.50;99.90
23323;DHT22;11833;52.554;13.554;2023-02-22T04:51:36;6.50;99.90
23323;DHT22;11833;52.554;13.554;2023-02-22T04:54:02;6.50;99.90
23323;DHT22;11833;52.554;13.554;2023-02-22T04:56:28;6.60;99.90
23323;DHT22;11833;52.554;13.554;2023-02-22T04:58:54;6.50;99.90
23323;DHT22;11833;52.554;13.554;2023-02-22T05:01:20;6.60;99.90
23323;DHT22;11833;52.554;13.554;2023-02-22T05:03:45;6.60;99.90
23323;DHT22;11833;52.554;13.554;2023-02-22T05:06:11;6.60;99.90
23323;DHT22;11833;52.554;13.554;2023-02-22T05:08:37;6.60;99.90
23323;DHT22;11833;52.554;13.554;2023-02-22T05:11:03;6.50;99.90
23323;DHT22;11833;52.554;13.554;2023-02-22T05:13:30;6.60;99.90
23323;DHT22;11833;52.554;13.554;2023-02-22T05:15:56;6.70;99.90
23323;DHT22;11833;52.554;13.554;2023-02-22T05:18:21;6.70;99.90
23323;DHT22;11833;52.554;13.554;2023-02-22T05:20:47;6.70;99.90
23323;DHT22;11833;52.554;13.554;2023-02-22T05:23:13;6.70;99.90
23323;DHT22;11833;52.554;13.554;2023-02-22T05:25:39;6.70;99.90
23323;DHT22;11833;52.554;13.554;2023-02-22T05:28:12;6.70;99.90
23323;DHT22;11833;52.554;13.554;2023-02-22T05:30:39;6.70;99.90
23323;DHT22;11833;52.554;13.554;2023-02-22T05:33:05;6.60;99.90
23323;DHT22;11833;52.554;13.554;2023-02-22T05:35:31;6.60;99.90
23323;DHT22;11833;52.554;13.554;2023-02-22T05:37:57;6.60;99.90
23323;DHT22;11833;52.554;13.554;2023-02-22T05:40:26;6.60;99.90
23323;DHT22;11833;52.554;13.554;2023-02-22T05:42:53;6.70;99.90
23323;DHT22;11833;52.554;13.554;2023-02-22T05:45:21;6.70;99.90
23323;DHT22;11833;52.554;13.554;2023-02-22T05:47:47;6.70;99.90
23323;DHT22;11833;52.554;13.554;2023-02-22T05:50:15;6.80;99.90
23323;DHT22;11833;52.554;13.554;2023-02-22T05:52:42;6.80;99.90
23323;DHT22;11833;52.554;13.554;2023-02-22T05:55:09;6.70;99.90
23323;DHT22;11833;52.554;13.554;2023-02-22T05:57:37;6.70;99.90
23323;DHT22;11833;52.554;13.554;2023-02-22T06:00:04;6.60;99.90
23323;DHT22;11833;52.554;13.554;2023-02-22T06:02:31;6.50;99.90
23323;DHT22;11833;52.554;13.554;2023-02-22T06:04:58;6.60;99.90
23323;DHT22;11833;52.554;13.554;2023-02-22T06:07:24;6.60;99.90
23323;DHT22;11833;52.554;13.554;2023-02-22T06:09:51;6.80;99.90
23323;DHT22;11833;52.554;13.554;2023-02-22T06:12:18;6.80;99.90
23323;DHT22;11833;52.554;13.554;2023-02-22T06:14:44;6.70;99.90
23323;DHT22;11833;52.554;13.554;2023-02-22T06:17:11;6.70;99.90
23323;DHT22;11833;52.554;13.554;2023-02-22T06:19:38;6.80;99.90
23323;DHT22;11833;52.554;13.554;2023-02-22T06:22:05;6.80;99.90
23323;DHT22;11833;52.554;13.554;2023-02-22T06:24:31;6.80;99.90
23323;DHT22;11833;52.554;13.554;2023-02-22T06:27:00;6.80;99.90
23323;DHT22;11833;52.554;13.554;2023-02-22T06:29:27;6.80;99.90
23323;DHT22;11833;52.554;13.554;2023-02-22T06:31:54;6.80;99.90
23323;DHT22;11833;52.554;13.554;2023-02-22T06:34:20;6.80;99.90
23323;DHT22;11833;52.554;13.554;2023-02-22T06:36:47;6.80;99.90
23323;DHT22;11833;52.554;13.554;2023-02-22T06:39:14;6.80;99.90
23323;DHT22;11833;52.554;13.554;2023-02-22T06:41:42;6.80;99.90
23323;DHT22;11833;52.554;13.554;2023-02-22T06:44:09;6.90;99.90
23323;DHT22;11833;52.554;13.554;2023-02-22T06:46:35;6.90;99.90
23323;DHT22;11833;52.554;13.554;2023-02-22T06:49:02;6.90;99.90
23323;DHT22;11833;52.554;13.554;2023-02-22T06:51:29;7.00;99.90
23323;DHT22;11833;52.554;13.554;2023-02-22T06:53:55;7.00;99.90
23323;DHT22;11833;52.554;13.554;2023-02-22T06:56:21;7.00;99.90
23323;DHT22;11833;52.554;13.554;2023-02-22T06:58:47;7.00;99.90
23323;DHT22;11833;52.554;13.554;2023-02-22T07:01:13;7.00;99.90
23323;DHT22;11833;52.554;13.554;2023-02-22T07:03:39;7.10;99.90
23323;DHT22;11833;52.554;13.554;2023-02-22T07:06:06;7.20;99.90
23323;DHT22;11833;52.554;13.554;2023-02-22T07:08:32;7.20;99.90
23323;DHT22;11833;52.554;13.554;2023-02-22T07:10:58;7.20;99.90
23323;DHT22;11833;52.554;13.554;2023-02-22T07:13:24;7.30;99.90
23323;DHT22;11833;52.554;13.554;2023-02-22T07:15:50;7.30;99.90
23323;DHT22;11833;52.554;13.554;2023-02-22T07:18:15;7.30;99.90
23323;DHT22;11833;52.554;13.554;2023-02-22T07:20:41;7.40;99.90
23323;DHT22;11833;52.554;13.554;2023-02-22T07:23:07;7.40;99.90
23323;DHT22;11833;52.554;13.554;2023-02-22T07:25:34;7.50;99.90
23323;DHT22;11833;52.554;13.554;2023-02-22T07:28:00;7.50;99.90
23323;DHT22;11833;52.554;13.554;2023-02-22T07:30:31;7.50;99.90
23323;DHT22;11833;52.554;13.554;2023-02-22T07:33:09;7.50;99.90
23323;DHT22;11833;52.554;13.554;2023-02-22T07:35:38;7.50;99.90
23323;DHT22;11833;52.554;13.554;2023-02-22T07:38:08;7.60;99.90
23323;DHT22;11833;52.554;13.554;2023-02-22T07:40:37;7.60;99.90
23323;DHT22;11833;52.554;13.554;2023-02-22T07:43:24;7.60;99.90
23323;DHT22;11833;52.554;13.554;2023-02-22T07:45:53;7.60;99.90
23323;DHT22;11833;52.554;13.554;2023-02-22T07:48:22;7.70;99.90
23323;DHT22;11833;52.554;13.554;2023-02-22T07:50:49;7.80;99.90
23323;DHT22;11833;52.554;13.554;2023-02-22T07:53:27;7.80;99.90
23323;DHT22;11833;52.554;13.554;2023-02-22T07:55:59;7.80;99.90
23323;DHT22;11833;52.554;13.554;2023-02-22T07:58:27;7.90;99.90
23323;DHT22;11833;52.554;13.554;2023-02-22T08:00:54;7.90;99.90
23323;DHT22;11833;52.554;13.554;2023-02-22T08:03:24;7.90;99.90
23323;DHT22;11833;52.554;13.554;2023-02-22T08:05:55;8.00;99.90
23323;DHT22;11833;52.554;13.554;2023-02-22T08:08:22;8.00;99.90
23323;DHT22;11833;52.554;13.554;2023-02-22T08:10:49;8.00;99.90
23323;DHT22;11833;52.554;13.554;2023-02-22T08:13:16;7.90;99.90
23323;DHT22;11833;52.554;13.554;2023-02-22T08:15:42;8.00;99.90
23323;DHT22;11833;52.554;13.554;2023-02-22T08:18:14;8.10;99.90
23323;DHT22;11833;52.554;13.554;2023-02-22T08:20:42;8.20;99.90
23323;DHT22;11833;52.554;13.554;2023-02-22T08:23:09;8.30;99.90
23323;DHT22;11833;52.554;13.554;2023-02-22T08:25:36;8.20;99.90
23323;DHT22;11833;52.554;13.554;2023-02-22T08:28:05;8.20;99.90
23323;DHT22;11833;52.554;13.554;2023-02-22T08:30:36;8.10;99.90
23323;DHT22;11833;52.554;13.554;2023-02-22T08:33:03;8.20;99.90
23323;DHT22;11833;52.554;13.554;2023-02-22T08:35:31;8.20;99.90
23323;DHT22;11833;52.554;13.554;2023-02-22T08:38:03;8.30;99.90
23323;DHT22;11833;52.554;13.554;2023-02-22T08:40:32;8.20;99.90
23323;DHT22;11833;52.554;13.554;2023-02-22T08:42:59;8.10;99.90
23323;DHT22;11833;52.554;13.554;2023-02-22T08:45:29;8.30;99.90
23323;DHT22;11833;52.554;13.554;2023-02-22T08:47:56;8.30;99.90
23323;DHT22;11833;52.554;13.554;2023-02-22T08:50:28;8.20;99.90
23323;DHT22;11833;52.554;13.554;2023-02-22T08:52:56;8.20;99.90
23323;DHT22;11833;52.554;13.554;2023-02-22T08:55:25;8.10;99.90
23323;DHT22;11833;52.554;13.554;2023-02-22T08:57:52;8.20;99.90
23323;DHT22;11833;52.554;13.554;2023-02-22T09:00:18;8.10;99.90
23323;DHT22;11833;52.554;13.554;2023-02-22T09:02:49;8.10;99.90
23323;DHT22;11833;52.554;13.554;2023-02-22T09:05:15;8.10;99.90
23323;DHT22;11833;52.554;13.554;2023-02-22T09:07:42;8.20;99.90
23323;DHT22;11833;52.554;13.554;2023-02-22T09:10:17;8.30;99.90
23323;DHT22;11833;52.554;13.554;2023-02-22T09:12:49;8.40;99.90
23323;DHT22;11833;52.554;13.554;2023-02-22T09:15:16;8.50;99.90
23323;DHT22;11833;52.554;13.554;2023-02-22T09:17:42;8.60;99.90
23323;DHT22;11833;52.554;13.554;2023-02-22T09:20:08;8.60;99.90
23323;DHT22;11833;52.554;13.554;2023-02-22T09:22:36;8.70;99.90
23323;DHT22;11833;52.554;13.554;2023-02-22T09:25:03;8.70;99.90
23323;DHT22;11833;52.554;13.554;2023-02-22T09:27:29;8.80;99.90
23323;DHT22;11833;52.554;13.554;2023-02-22T09:29:55;8.80;99.90
23323;DHT22;11833;52.554;13.554;2023-02-22T09:32:23;8.80;99.90
23323;DHT22;11833;52.554;13.554;2023-02-22T09:34:52;8.80;99.90
23323;DHT22;11833;52.554;13.554;2023-02-22T09:37:19;8.90;99.90
23323;DHT22;11833;52.554;13.554;2023-02-22T09:39:45;9.10;99.90
23323;DHT22;11833;52.554;13.554;2023-02-22T09:42:38;9.10;99.90
23323;DHT22;11833;52.554;13.554;2023-02-22T09:45:22;9.10;99.90
23323;DHT22;11833;52.554;13.554;2023-02-22T09:48:04;9.20;99.90
23323;DHT22;11833;52.554;13.554;2023-02-22T09:50:37;9.20;99.90
23323;DHT22;11833;52.554;13.554;2023-02-22T09:53:24;9.30;99.90
23323;DHT22;11833;52.554;13.554;2023-02-22T09:56:03;9.40;99.90
23323;DHT22;11833;52.554;13.554;2023-02-22T09:58:38;9.30;99.90
23323;DHT22;11833;52.554;13.554;2023-02-22T10:01:30;9.40;99.90
23323;DHT22;11833;52.554;13.554;2023-02-22T10:04:21;9.60;99.90
23323;DHT22;11833;52.554;13.554;2023-02-22T10:06:59;9.60;99.90
23323;DHT22;11833;52.554;13.554;2023-02-22T10:09:33;9.60;99.90
23323;DHT22;11833;52.554;13.554;2023-02-22T10:12:11;9.80;99.90
23323;DHT22;11833;52.554;13.554;2023-02-22T10:17:46;10.00;99.90
23323;DHT22;11833;52.554;13.554;2023-02-22T10:26:17;10.10;99.90
23323;DHT22;11833;52.554;13.554;2023-02-22T10:28:53;10.30;99.90
23323;DHT22;11833;52.554;13.554;2023-02-22T10:31:31;10.20;99.90
23323;DHT22;11833;52.554;13.554;2023-02-22T10:34:08;10.10;99.90
23323;DHT22;11833;52.554;13.554;2023-02-22T10:36:37;10.10;99.90
23323;DHT22;11833;52.554;13.554;2023-02-22T10:39:29;10.10;99.90
23323;DHT22;11833;52.554;13.554;2023-02-22T10:42:05;10.20;99.90
23323;DHT22;11833;52.554;13.554;2023-02-22T10:44:34;10.30;99.90
23323;DHT22;11833;52.554;13.554;2023-02-22T10:47:04;10.40;99.90
23323;DHT22;11833;52.554;13.554;2023-02-22T10:49:45;10.60;99.90
23323;DHT22;11833;52.554;13.554;2023-02-22T10:52:31;10.60;99.90
23323;DHT22;11833;52.554;13.554;2023-02-22T10:55:02;10.70;99.90
23323;DHT22;11833;52.554;13.554;2023-02-22T10:57:35;10.70;99.90
23323;DHT22;11833;52.554;13.554;2023-02-22T11:03:17;10.40;99.90
23323;DHT22;11833;52.554;13.554;2023-02-22T11:05:45;10.30;99.90
23323;DHT22;11833;52.554;13.554;2023-02-22T11:10:47;10.50;99.90
23323;DHT22;11833;52.554;13.554;2023-02-22T11:13:30;10.60;99.90
23323;DHT22;11833;52.554;13.554;2023-02-22T11:16:18;10.70;99.90
23323;DHT22;11833;52.554;13.554;2023-02-22T11:18:45;10.60;99.90
23323;DHT22;11833;52.554;13.554;2023-02-22T11:21:12;10.70;99.90
23323;DHT22;11833;52.554;13.554;2023-02-22T11:23:48;10.70;99.90
23323;DHT22;11833;52.554;13.554;2023-02-22T11:26:17;10.60;99.90
23323;DHT22;11833;52.554;13.554;2023-02-22T11:28:50;10.70;99.90
23323;DHT22;11833;52.554;13.554;2023-02-22T11:31:28;10.70;99.90
23323;DHT22;11833;52.554;13.554;2023-02-22T11:34:01;10.80;99.90
23323;DHT22;11833;52.554;13.554;2023-02-22T11:36:39;10.70;99.90
23323;DHT22;11833;52.554;13.554;2023-02-22T11:39:30;10.80;99.90
23323;DHT22;11833;52.554;13.554;2023-02-22T11:42:25;11.20;99.90
23323;DHT22;11833;52.554;13.554;2023-02-22T11:45:21;11.00;99.90
23323;DHT22;11833;52.554;13.554;2023-02-22T11:48:00;11.00;99.90
23323;DHT22;11833;52.554;13.554;2023-02-22T11:50:38;11.20;99.90
23323;DHT22;11833;52.554;13.554;2023-02-22T11:56:28;11.10;99.90
23323;DHT22;11833;52.554;13.554;2023-02-22T11:59:17;10.90;99.90
23323;DHT22;11833;52.554;13.554;2023-02-22T12:06:02;11.10;99.90
23323;DHT22;11833;52.554;13.554;2023-02-22T12:11:04;11.00;99.90
23323;DHT22;11833;52.554;13.554;2023-02-22T12:16:39;10.90;99.90
23323;DHT22;11833;52.554;13.554;2023-02-22T12:19:40;10.50;99.90
23323;DHT22;11833;52.554;13.554;2023-02-22T12:22:26;10.60;99.90
23323;DHT22;11833;52.554;13.554;2023-02-22T12:25:04;10.70;99.90
23323;DHT22;11833;52.554;13.554;2023-02-22T12:27:46;10.80;99.90
23323;DHT22;11833;52.554;13.554;2023-02-22T12:30:23;10.60;99.90
23323;DHT22;11833;52.554;13.554;2023-02-22T12:32:58;10.60;99.90
23323;DHT22;11833;52.554;13.554;2023-02-22T12:38:03;10.90;99.90
23323;DHT22;11833;52.554;13.554;2023-02-22T12:40:51;10.90;99.90
23323;DHT22;11833;52.554;13.554;2023-02-22T12:46:23;10.70;99.90
23323;DHT22;11833;52.554;13.554;2023-02-22T12:49:46;10.70;99.90
23323;DHT22;11833;52.554;13.554;2023-02-22T12:55:23;10.80;99.90
23323;DHT22;11833;52.554;13.554;2023-02-22T12:58:31;10.80;99.90
23323;DHT22;11833;52.554;13.554;2023-02-22T13:01:03;10.70;99.90
23323;DHT22;11833;52.554;13.554;2023-02-22T13:03:44;10.60;99.90
23323;DHT22;11833;52.554;13.554;2023-02-22T13:12:08;10.60;99.90
23323;DHT22;11833;52.554;13.554;2023-02-22T13:23:32;10.80;99.90
23323;DHT22;11833;52.554;13.554;2023-02-22T13:26:28;10.90;99.90
23323;DHT22;11833;52.554;13.554;2023-02-22T13:46:01;10.90;99.90
23323;DHT22;11833;52.554;13.554;2023-02-22T13:51:31;11.00;99.90
23323;DHT22;11833;52.554;13.554;2023-02-22T13:56:47;11.10;99.90
23323;DHT22;11833;52.554;13.554;2023-02-22T13:59:33;11.00;99.90
23323;DHT22;11833;52.554;13.554;2023-02-22T14:02:01;11.10;99.90
23323;DHT22;11833;52.554;13.554;2023-02-22T14:06:56;10.90;99.80
23323;DHT22;11833;52.554;13.554;2023-02-22T14:12:45;11.00;99.90
23323;DHT22;11833;52.554;13.554;2023-02-22T14:17:48;11.00;99.90
23323;DHT22;11833;52.554;13.554;2023-02-22T14:20:35;11.10;99.90
23323;DHT22;11833;52.554;13.554;2023-02-22T14:25:54;11.00;99.90
23323;DHT22;11833;52.554;13.554;2023-02-22T14:31:14;10.90;99.90
23323;DHT22;11833;52.554;13.554;2023-02-22T14:36:22;11.10;99.90
23323;DHT22;11833;52.554;13.554;2023-02-22T14:38:51;10.90;99.90
23323;DHT22;11833;52.554;13.554;2023-02-22T14:41:21;10.70;99.90
23323;DHT22;11833;52.554;13.554;2023-02-22T14:43:52;10.60;99.90
23323;DHT22;11833;52.554;13.554;2023-02-22T14:46:22;10.60;99.90
23323;DHT22;11833;52.554;13.554;2023-02-22T14:48:57;10.70;99.90
23323;DHT22;11833;52.554;13.554;2023-02-22T14:51:29;10.80;99.90
23323;DHT22;11833;52.554;13.554;2023-02-22T14:54:24;10.60;99.90
23323;DHT22;11833;52.554;13.554;2023-02-22T14:56:58;10.70;99.90
23323;DHT22;11833;52.554;13.554;2023-02-22T15:00:16;10.60;99.90
23323;DHT22;11833;52.554;13.554;2023-02-22T15:02:49;10.50;99.90
23323;DHT22;11833;52.554;13.554;2023-02-22T15:05:18;10.40;99.90
23323;DHT22;11833;52.554;13.554;2023-02-22T15:08:11;10.50;99.90
23323;DHT22;11833;52.554;13.554;2023-02-22T15:10:45;10.50;99.90
23323;DHT22;11833;52.554;13.554;2023-02-22T15:13:21;10.60;99.90
23323;DHT22;11833;52.554;13.554;2023-02-22T15:18:40;10.40;99.90
23323;DHT22;11833;52.554;13.554;2023-02-22T15:21:14;10.30;99.90
23323;DHT22;11833;52.554;13.554;2023-02-22T15:23:46;10.20;99.90
23323;DHT22;11833;52.554;13.554;2023-02-22T15:26:33;10.10;99.90
23323;DHT22;11833;52.554;13.554;2023-02-22T15:29:00;10.00;99.90
23323;DHT22;11833;52.554;13.554;2023-02-22T15:31:33;10.10;99.90
23323;DHT22;11833;52.554;13.554;2023-02-22T15:36:53;9.90;99.90
23323;DHT22;11833;52.554;13.554;2023-02-22T15:39:28;9.90;99.90
23323;DHT22;11833;52.554;13.554;2023-02-22T15:42:16;10.00;99.90
23323;DHT22;11833;52.554;13.554;2023-02-22T15:44:49;9.90;99.90
23323;DHT22;11833;52.554;13.554;2023-02-22T15:47:27;9.90;99.90
23323;DHT22;11833;52.554;13.554;2023-02-22T15:50:13;9.90;99.90
23323;DHT22;11833;52.554;13.554;2023-02-22T15:52:46;9.90;99.90
23323;DHT22;11833;52.554;13.554;2023-02-22T16:00:41;9.90;99.90
23323;DHT22;11833;52.554;13.554;2023-02-22T16:03:11;9.80;99.90
23323;DHT22;11833;52.554;13.554;2023-02-22T16:05:51;9.80;99.90
23323;DHT22;11833;52.554;13.554;2023-02-22T16:11:14;9.80;99.90
23323;DHT22;11833;52.554;13.554;2023-02-22T16:13:52;9.70;99.90
23323;DHT22;11833;52.554;13.554;2023-02-22T16:18:50;9.70;99.90
23323;DHT22;11833;52.554;13.554;2023-02-22T16:21:19;9.60;99.90
23323;DHT22;11833;52.554;13.554;2023-02-22T16:23:51;9.60;99.90
23323;DHT22;11833;52.554;13.554;2023-02-22T16:26:29;9.60;99.90
23323;DHT22;11833;52.554;13.554;2023-02-22T16:31:26;9.50;99.90
23323;DHT22;11833;52.554;13.554;2023-02-22T16:33:53;9.50;99.90
23323;DHT22;11833;52.554;13.554;2023-02-22T16:36:23;9.50;99.90
23323;DHT22;11833;52.554;13.554;2023-02-22T16:39:01;9.50;99.90
23323;DHT22;11833;52.554;13.554;2023-02-22T16:41:31;9.40;99.90
23323;DHT22;11833;52.554;13.554;2023-02-22T16:43:58;9.40;99.90
23323;DHT22;11833;52.554;13.554;2023-02-22T16:46:24;9.40;99.90
23323;DHT22;11833;52.554;13.554;2023-02-22T16:48:49;9.40;99.90
23323;DHT22;11833;52.554;13.554;2023-02-22T16:51:16;9.30;99.90
23323;DHT22;11833;52.554;13.554;2023-02-22T16:53:46;9.40;99.90
23323;DHT22;11833;52.554;13.554;2023-02-22T16:56:15;9.40;99.90
23323;DHT22;11833;52.554;13.554;2023-02-22T16:58:44;9.30;99.90
23323;DHT22;11833;52.554;13.554;2023-02-22T17:01:11;9.30;99.90
23323;DHT22;11833;52.554;13.554;2023-02-22T17:03:37;9.20;99.90
23323;DHT22;11833;52.554;13.554;2023-02-22T17:06:03;9.20;99.90
23323;DHT22;11833;52.554;13.554;2023-02-22T17:08:29;9.10;99.90
23323;DHT22;11833;52.554;13.554;2023-02-22T17:10:57;9.10;99.90
23323;DHT22;11833;52.554;13.554;2023-02-22T17:13:26;9.00;99.90
23323;DHT22;11833;52.554;13.554;2023-02-22T17:15:54;9.00;99.90
23323;DHT22;11833;52.554;13.554;2023-02-22T17:18:21;8.90;99.90
23323;DHT22;11833;52.554;13.554;2023-02-22T17:20:52;8.90;99.90
23323;DHT22;11833;52.554;13.554;2023-02-22T17:23:20;8.80;99.90
23323;DHT22;11833;52.554;13.554;2023-02-22T17:28:15;8.70;99.90
23323;DHT22;11833;52.554;13.554;2023-02-22T17:30:41;8.60;99.90
23323;DHT22;11833;52.554;13.554;2023-02-22T17:33:12;8.60;99.90
23323;DHT22;11833;52.554;13.554;2023-02-22T17:35:40;8.50;99.90
23323;DHT22;11833;52.554;13.554;2023-02-22T17:38:06;8.50;99.90
23323;DHT22;11833;52.554;13.554;2023-02-22T17:40:33;8.40;99.90
23323;DHT22;11833;52.554;13.554;2023-02-22T17:43:03;8.40;99.90
23323;DHT22;11833;52.554;13.554;2023-02-22T17:45:32;8.40;99.90
23323;DHT22;11833;52.554;13.554;2023-02-22T17:47:58;8.30;99.90
23323;DHT22;11833;52.554;13.554;2023-02-22T17:50:24;8.30;99.90
23323;DHT22;11833;52.554;13.554;2023-02-22T17:52:51;8.30;99.90
23323;DHT22;11833;52.554;13.554;2023-02-22T17:55:18;8.30;99.90
23323;DHT22;11833;52.554;13.554;2023-02-22T17:57:45;8.20;99.90
23323;DHT22;11833;52.554;13.554;2023-02-22T18:00:15;8.20;99.90
23323;DHT22;11833;52.554;13.554;2023-02-22T18:02:49;8.10;99.90
23323;DHT22;11833;52.554;13.554;2023-02-22T18:05:17;8.10;99.90
23323;DHT22;11833;52.554;13.554;2023-02-22T18:07:45;8.10;99.90
23323;DHT22;11833;52.554;13.554;2023-02-22T18:10:11;8.10;99.90
23323;DHT22;11833;52.554;13.554;2023-02-22T18:12:38;8.00;99.90
23323;DHT22;11833;52.554;13.554;2023-02-22T18:15:06;8.00;99.90
23323;DHT22;11833;52.554;13.554;2023-02-22T18:17:34;7.90;99.90
23323;DHT22;11833;52.554;13.554;2023-02-22T18:20:01;7.90;99.90
23323;DHT22;11833;52.554;13.554;2023-02-22T18:22:26;7.90;99.90
23323;DHT22;11833;52.554;13.554;2023-02-22T18:24:52;7.80;99.90
23323;DHT22;11833;52.554;13.554;2023-02-22T18:27:19;7.80;99.90
23323;DHT22;11833;52.554;13.554;2023-02-22T18:29:45;7.90;99.90
23323;DHT22;11833;52.554;13.554;2023-02-22T18:32:10;7.90;99.90
23323;DHT22;11833;52.554;13.554;2023-02-22T18:34:38;7.90;99.90
23323;DHT22;11833;52.554;13.554;2023-02-22T18:37:04;7.80;99.90
23323;DHT22;11833;52.554;13.554;2023-02-22T18:39:31;7.80;99.90
23323;DHT22;11833;52.554;13.554;2023-02-22T18:42:04;7.80;99.90
23323;DHT22;11833;52.554;13.554;2023-02-22T18:44:30;7.70;99.90
23323;DHT22;11833;52.554;13.554;2023-02-22T18:46:56;7.70;99.90
23323;DHT22;11833;52.554;13.554;2023-02-22T18:49:22;7.60;99.90
23323;DHT22;11833;52.554;13.554;2023-02-22T18:51:51;7.50;99.90
23323;DHT22;11833;52.554;13.554;2023-02-22T18:54:17;7.50;99.90
23323;DHT22;11833;52.554;13.554;2023-02-22T18:56:44;7.50;99.90
23323;DHT22;11833;52.554;13.554;2023-02-22T18:59:11;7.50;99.90
23323;DHT22;11833;52.554;13.554;2023-02-22T19:01:38;7.50;99.90
23323;DHT22;11833;52.554;13.554;2023-02-22T19:04:07;7.40;99.90
23323;DHT22;11833;52.554;13.554;2023-02-22T19:06:37;7.40;99.90
23323;DHT22;11833;52.554;13.554;2023-02-22T19:09:04;7.40;99.90
23323;DHT22;11833;52.554;13.554;2023-02-22T19:11:34;7.40;99.90
23323;DHT22;11833;52.554;13.554;2023-02-22T19:14:01;7.30;99.90
23323;DHT22;11833;52.554;13.554;2023-02-22T19:16:30;7.40;99.90
23323;DHT22;11833;52.554;13.554;2023-02-22T19:18:56;7.40;99.90